sensor_id;sensor_type;location;lat;lon;timestamp;pressure;altitude;pressure_sealevel;temperature;humidity
42951;BME280;28592;51.064;17.192;2022-11-20T00:01:22;99929.42;;;-3.93;94.33
42951;BME280;28592;51.064;17.192;2022-11-20T00:04:09;99926.83;;;-3.93;94.04
42951;BME280;28592;51.064;17.192;2022-11-20T00:06:56;99932.33;;;-4.02;92.94
42951;BME280;28592;51.064;17.192;2022-11-20T00:09:41;99926.36;;;-4.04;93.66
42951;BME280;28592;51.064;17.192;2022-11-20T00:12:28;99931.53;;;-4.04;93.67
42951;BME280;28592;51.064;17.192;2022-11-20T00:15:17;99928.17;;;-4.06;94.31
42951;BME280;28592;51.064;17.192;2022-11-20T00:18:03;99917.34;;;-4.17;94.85
42951;BME280;28592;51.064;17.192;2022-11-20T00:20:50;99913.08;;;-4.18;94.61
42951;BME280;28592;51.064;17.192;2022-11-20T00:23:35;99919.72;;;-4.11;94.88
42951;BME280;28592;51.064;17.192;2022-11-20T00:26:22;99919.77;;;-4.12;93.77
42951;BME280;28592;51.064;17.192;2022-11-20T00:29:09;99926.02;;;-4.18;93.45
42951;BME280;28592;51.064;17.192;2022-11-20T00:31:55;99926.89;;;-4.19;93.77
42951;BME280;28592;51.064;17.192;2022-11-20T00:34:40;99925.37;;;-4.24;93.17
42951;BME280;28592;51.064;17.192;2022-11-20T00:37:26;99922.14;;;-4.31;92.21
42951;BME280;28592;51.064;17.192;2022-11-20T00:40:12;99922.94;;;-4.29;92.89
42951;BME280;28592;51.064;17.192;2022-11-20T00:42:58;99924.62;;;-4.28;93.74
42951;BME280;28592;51.064;17.192;2022-11-20T00:45:43;99919.66;;;-4.34;93.40
42951;BME280;28592;51.064;17.192;2022-11-20T00:48:29;99917.13;;;-4.35;93.18
42951;BME280;28592;51.064;17.192;2022-11-20T00:51:18;99924.18;;;-4.40;93.15
42951;BME280;28592;51.064;17.192;2022-11-20T00:54:07;99932.64;;;-4.35;93.86
42951;BME280;28592;51.064;17.192;2022-11-20T00:56:53;99932.53;;;-4.32;93.27
42951;BME280;28592;51.064;17.192;2022-11-20T00:59:38;99940.30;;;-4.32;93.39
42951;BME280;28592;51.064;17.192;2022-11-20T01:02:24;99938.66;;;-4.35;93.33
42951;BME280;28592;51.064;17.192;2022-11-20T01:05:12;99942.48;;;-4.46;93.33
42951;BME280;28592;51.064;17.192;2022-11-20T01:07:58;99938.17;;;-4.46;92.77
42951;BME280;28592;51.064;17.192;2022-11-20T01:10:43;99943.19;;;-4.41;93.07
42951;BME280;28592;51.064;17.192;2022-11-20T01:13:30;99943.13;;;-4.40;93.15
42951;BME280;28592;51.064;17.192;2022-11-20T01:16:35;99940.55;;;-4.40;93.07
42951;BME280;28592;51.064;17.192;2022-11-20T01:19:18;99942.28;;;-4.40;93.17
42951;BME280;28592;51.064;17.192;2022-11-20T01:22:04;99942.72;;;-4.28;94.02
42951;BME280;28592;51.064;17.192;2022-11-20T01:24:53;99940.13;;;-4.28;93.57
42951;BME280;28592;51.064;17.192;2022-11-20T01:27:38;99936.73;;;-4.28;93.86
42951;BME280;28592;51.064;17.192;2022-11-20T01:30:23;99939.52;;;-4.34;94.82
42951;BME280;28592;51.064;17.192;2022-11-20T01:33:12;99936.94;;;-4.34;94.56
42951;BME280;28592;51.064;17.192;2022-11-20T01:36:04;99941.30;;;-4.36;95.09
42951;BME280;28592;51.064;17.192;2022-11-20T01:38:58;99941.35;;;-4.38;94.80
42951;BME280;28592;51.064;17.192;2022-11-20T01:41:44;99937.75;;;-4.34;95.38
42951;BME280;28592;51.064;17.192;2022-11-20T01:44:49;99933.77;;;-4.18;96.72
42951;BME280;28592;51.064;17.192;2022-11-20T01:47:40;99929.63;;;-4.23;96.20
42951;BME280;28592;51.064;17.192;2022-11-20T01:50:28;99933.88;;;-4.21;96.01
42951;BME280;28592;51.064;17.192;2022-11-20T01:53:18;99940.19;;;-4.29;95.54
42951;BME280;28592;51.064;17.192;2022-11-20T01:56:08;99932.37;;;-4.28;95.97
42951;BME280;28592;51.064;17.192;2022-11-20T01:58:58;99932.37;;;-4.28;95.67
42951;BME280;28592;51.064;17.192;2022-11-20T02:01:45;99933.13;;;-4.24;95.42
42951;BME280;28592;51.064;17.192;2022-11-20T02:04:34;99926.33;;;-4.27;95.14
42951;BME280;28592;51.064;17.192;2022-11-20T02:07:21;99929.20;;;-4.36;94.77
42951;BME280;28592;51.064;17.192;2022-11-20T02:10:07;99929.20;;;-4.36;94.91
42951;BME280;28592;51.064;17.192;2022-11-20T02:12:53;99928.38;;;-4.36;94.62
42951;BME280;28592;51.064;17.192;2022-11-20T02:15:53;99929.84;;;-4.29;94.61
42951;BME280;28592;51.064;17.192;2022-11-20T02:18:43;99922.09;;;-4.29;94.73
42951;BME280;28592;51.064;17.192;2022-11-20T02:24:28;99916.53;;;-4.43;95.41
42951;BME280;28592;51.064;17.192;2022-11-20T02:27:17;99913.94;;;-4.43;95.20
42951;BME280;28592;51.064;17.192;2022-11-20T02:30:05;99915.39;;;-4.35;95.11
42951;BME280;28592;51.064;17.192;2022-11-20T02:32:52;99913.78;;;-4.39;95.35
42951;BME280;28592;51.064;17.192;2022-11-20T02:35:46;99917.98;;;-4.35;95.97
42951;BME280;28592;51.064;17.192;2022-11-20T02:38:35;99912.80;;;-4.35;95.94
42951;BME280;28592;51.064;17.192;2022-11-20T02:41:20;99923.20;;;-4.36;95.74
42951;BME280;28592;51.064;17.192;2022-11-20T02:44:06;99913.68;;;-4.36;95.94
42951;BME280;28592;51.064;17.192;2022-11-20T02:46:51;99920.02;;;-4.44;95.50
42951;BME280;28592;51.064;17.192;2022-11-20T02:49:36;99914.00;;;-4.45;95.67
42951;BME280;28592;51.064;17.192;2022-11-20T02:52:25;99916.42;;;-4.40;96.20
42951;BME280;28592;51.064;17.192;2022-11-20T02:55:11;99918.95;;;-4.39;96.30
42951;BME280;28592;51.064;17.192;2022-11-20T02:57:56;99909.52;;;-4.40;96.14
42951;BME280;28592;51.064;17.192;2022-11-20T03:00:44;99919.31;;;-4.49;95.85
42951;BME280;28592;51.064;17.192;2022-11-20T03:03:30;99917.84;;;-4.56;95.08
42951;BME280;28592;51.064;17.192;2022-11-20T03:06:18;99915.70;;;-4.44;95.35
42951;BME280;28592;51.064;17.192;2022-11-20T03:09:03;99913.12;;;-4.44;95.22
42951;BME280;28592;51.064;17.192;2022-11-20T03:11:48;99913.89;;;-4.42;96.37
42951;BME280;28592;51.064;17.192;2022-11-20T03:14:34;99908.00;;;-4.45;96.36
42951;BME280;28592;51.064;17.192;2022-11-20T03:17:19;99912.52;;;-4.52;96.44
42951;BME280;28592;51.064;17.192;2022-11-20T03:20:08;99909.88;;;-4.50;96.80
42951;BME280;28592;51.064;17.192;2022-11-20T03:22:57;99909.88;;;-4.50;96.55
42951;BME280;28592;51.064;17.192;2022-11-20T03:25:42;99915.05;;;-4.50;96.05
42951;BME280;28592;51.064;17.192;2022-11-20T03:28:30;99906.95;;;-4.66;94.28
42951;BME280;28592;51.064;17.192;2022-11-20T03:31:18;99909.79;;;-4.73;93.78
42951;BME280;28592;51.064;17.192;2022-11-20T03:34:04;99909.08;;;-4.78;93.79
42951;BME280;28592;51.064;17.192;2022-11-20T03:36:52;99911.87;;;-4.84;93.51
42951;BME280;28592;51.064;17.192;2022-11-20T03:39:37;99910.04;;;-4.81;94.22
42951;BME280;28592;51.064;17.192;2022-11-20T03:42:26;99906.70;;;-4.84;93.66
42951;BME280;28592;51.064;17.192;2022-11-20T03:45:23;99905.02;;;-4.85;93.39
42951;BME280;28592;51.064;17.192;2022-11-20T03:48:08;99904.16;;;-4.86;93.14
42951;BME280;28592;51.064;17.192;2022-11-20T03:51:06;99909.37;;;-4.87;92.93
42951;BME280;28592;51.064;17.192;2022-11-20T03:53:58;99907.66;;;-4.87;92.74
42951;BME280;28592;51.064;17.192;2022-11-20T03:56:47;99900.00;;;-4.90;92.76
42951;BME280;28592;51.064;17.192;2022-11-20T03:59:35;99909.67;;;-4.96;92.18
42951;BME280;28592;51.064;17.192;2022-11-20T04:02:24;99906.27;;;-4.97;92.33
42951;BME280;28592;51.064;17.192;2022-11-20T04:05:13;99912.20;;;-4.95;92.66
42951;BME280;28592;51.064;17.192;2022-11-20T04:07:58;99916.08;;;-5.08;92.01
42951;BME280;28592;51.064;17.192;2022-11-20T04:10:44;99911.67;;;-5.04;92.27
42951;BME280;28592;51.064;17.192;2022-11-20T04:13:29;99911.67;;;-5.04;92.50
42951;BME280;28592;51.064;17.192;2022-11-20T04:16:14;99919.95;;;-4.95;93.09
42951;BME280;28592;51.064;17.192;2022-11-20T04:19:01;99920.10;;;-4.99;93.44
42951;BME280;28592;51.064;17.192;2022-11-20T04:21:47;99915.70;;;-4.96;94.54
42951;BME280;28592;51.064;17.192;2022-11-20T04:24:32;99915.70;;;-4.96;94.49
42951;BME280;28592;51.064;17.192;2022-11-20T04:27:18;99916.08;;;-5.08;94.73
42951;BME280;28592;51.064;17.192;2022-11-20T04:30:04;99915.27;;;-5.10;95.23
42951;BME280;28592;51.064;17.192;2022-11-20T04:32:49;99911.02;;;-5.11;95.12
42951;BME280;28592;51.064;17.192;2022-11-20T04:35:36;99919.77;;;-5.16;94.23
42951;BME280;28592;51.064;17.192;2022-11-20T04:38:22;99921.81;;;-5.26;93.23
42951;BME280;28592;51.064;17.192;2022-11-20T04:41:17;99913.20;;;-5.26;93.04
42951;BME280;28592;51.064;17.192;2022-11-20T04:44:04;99917.37;;;-5.22;92.67
42951;BME280;28592;51.064;17.192;2022-11-20T04:46:50;99911.67;;;-5.32;93.39
42951;BME280;28592;51.064;17.192;2022-11-20T04:49:35;99910.00;;;-5.34;93.17
42951;BME280;28592;51.064;17.192;2022-11-20T04:52:24;99910.00;;;-5.34;92.91
42951;BME280;28592;51.064;17.192;2022-11-20T04:55:09;99905.92;;;-5.42;92.22
42951;BME280;28592;51.064;17.192;2022-11-20T04:57:54;99899.23;;;-5.47;91.10
42951;BME280;28592;51.064;17.192;2022-11-20T05:00:40;99894.94;;;-5.48;91.27
42951;BME280;28592;51.064;17.192;2022-11-20T05:03:25;99897.70;;;-5.54;91.09
42951;BME280;28592;51.064;17.192;2022-11-20T05:06:16;99896.84;;;-5.55;90.98
42951;BME280;28592;51.064;17.192;2022-11-20T05:09:01;99898.55;;;-5.54;91.04
42951;BME280;28592;51.064;17.192;2022-11-20T05:11:47;99891.04;;;-5.61;90.38
42951;BME280;28592;51.064;17.192;2022-11-20T05:14:35;99890.18;;;-5.62;90.60
42951;BME280;28592;51.064;17.192;2022-11-20T05:17:23;99891.81;;;-5.59;90.32
42951;BME280;28592;51.064;17.192;2022-11-20T05:20:12;99885.88;;;-5.61;90.56
42951;BME280;28592;51.064;17.192;2022-11-20T05:22:57;99886.92;;;-5.68;90.81
42951;BME280;28592;51.064;17.192;2022-11-20T05:25:42;99886.15;;;-5.70;90.38
42951;BME280;28592;51.064;17.192;2022-11-20T05:28:29;99885.34;;;-5.72;89.91
42951;BME280;28592;51.064;17.192;2022-11-20T05:31:23;99885.34;;;-5.72;90.07
42951;BME280;28592;51.064;17.192;2022-11-20T05:34:08;99886.41;;;-5.79;90.04
42951;BME280;28592;51.064;17.192;2022-11-20T05:36:54;99880.45;;;-5.81;90.31
42951;BME280;28592;51.064;17.192;2022-11-20T05:39:39;99885.60;;;-5.81;89.97
42951;BME280;28592;51.064;17.192;2022-11-20T05:42:24;99878.80;;;-5.82;90.28
42951;BME280;28592;51.064;17.192;2022-11-20T05:45:16;99879.67;;;-5.83;90.58
42951;BME280;28592;51.064;17.192;2022-11-20T05:48:01;99877.94;;;-5.83;90.38
42951;BME280;28592;51.064;17.192;2022-11-20T05:50:47;99875.23;;;-5.80;91.02
42951;BME280;28592;51.064;17.192;2022-11-20T05:53:34;99867.55;;;-5.81;91.53
42951;BME280;28592;51.064;17.192;2022-11-20T05:56:21;99868.61;;;-5.87;92.06
42951;BME280;28592;51.064;17.192;2022-11-20T05:59:07;99869.86;;;-5.72;93.30
42951;BME280;28592;51.064;17.192;2022-11-20T06:01:56;99864.66;;;-5.71;93.12
42951;BME280;28592;51.064;17.192;2022-11-20T06:04:41;99860.95;;;-5.62;94.14
42951;BME280;28592;51.064;17.192;2022-11-20T06:07:27;99855.23;;;-5.72;94.02
42951;BME280;28592;51.064;17.192;2022-11-20T06:10:12;99863.66;;;-5.67;95.33
42951;BME280;28592;51.064;17.192;2022-11-20T06:12:58;99861.94;;;-5.66;94.82
42951;BME280;28592;51.064;17.192;2022-11-20T06:15:51;99860.21;;;-5.66;94.10
42951;BME280;28592;51.064;17.192;2022-11-20T06:18:37;99858.31;;;-5.61;93.71
42951;BME280;28592;51.064;17.192;2022-11-20T06:21:23;99853.20;;;-5.62;93.70
42951;BME280;28592;51.064;17.192;2022-11-20T06:24:09;99854.02;;;-5.60;93.14
42951;BME280;28592;51.064;17.192;2022-11-20T06:26:55;99853.16;;;-5.61;92.76
42951;BME280;28592;51.064;17.192;2022-11-20T06:29:40;99848.90;;;-5.62;92.21
42951;BME280;28592;51.064;17.192;2022-11-20T06:32:26;99841.83;;;-5.55;92.01
42951;BME280;28592;51.064;17.192;2022-11-20T06:35:14;99842.70;;;-5.56;92.28
42951;BME280;28592;51.064;17.192;2022-11-20T06:38:00;99843.45;;;-5.53;92.65
42951;BME280;28592;51.064;17.192;2022-11-20T06:40:45;99837.12;;;-5.70;92.65
42951;BME280;28592;51.064;17.192;2022-11-20T06:43:32;99850.14;;;-5.46;93.31
42951;BME280;28592;51.064;17.192;2022-11-20T06:46:19;99851.02;;;-5.47;93.53
42951;BME280;28592;51.064;17.192;2022-11-20T06:49:04;99852.81;;;-5.49;93.71
42951;BME280;28592;51.064;17.192;2022-11-20T06:51:50;99846.13;;;-5.28;95.28
42951;BME280;28592;51.064;17.192;2022-11-20T06:54:35;99846.13;;;-5.28;95.49
42951;BME280;28592;51.064;17.192;2022-11-20T06:57:21;99850.00;;;-5.15;95.61
42951;BME280;28592;51.064;17.192;2022-11-20T07:00:07;99858.31;;;-5.05;95.43
42951;BME280;28592;51.064;17.192;2022-11-20T07:02:52;99865.61;;;-4.92;94.87
42951;BME280;28592;51.064;17.192;2022-11-20T07:05:38;99861.00;;;-4.82;94.57
42951;BME280;28592;51.064;17.192;2022-11-20T07:08:24;99861.86;;;-4.82;94.73
42951;BME280;28592;51.064;17.192;2022-11-20T07:11:11;99870.20;;;-4.74;94.63
42951;BME280;28592;51.064;17.192;2022-11-20T07:13:57;99872.28;;;-4.59;94.22
42951;BME280;28592;51.064;17.192;2022-11-20T07:16:42;99863.03;;;-4.41;94.76
42951;BME280;28592;51.064;17.192;2022-11-20T07:19:28;99866.11;;;-4.30;95.03
42951;BME280;28592;51.064;17.192;2022-11-20T07:22:13;99867.45;;;-4.20;95.82
42951;BME280;28592;51.064;17.192;2022-11-20T07:24:58;99865.73;;;-4.20;95.64
42951;BME280;28592;51.064;17.192;2022-11-20T07:27:44;99860.11;;;-4.08;96.34
42951;BME280;28592;51.064;17.192;2022-11-20T07:30:30;99851.91;;;-3.96;96.92
42951;BME280;28592;51.064;17.192;2022-11-20T07:33:19;99845.52;;;-3.86;97.46
42951;BME280;28592;51.064;17.192;2022-11-20T07:36:05;99840.06;;;-3.57;97.73
42951;BME280;28592;51.064;17.192;2022-11-20T07:38:50;99839.24;;;-3.57;97.89
42951;BME280;28592;51.064;17.192;2022-11-20T07:41:36;99838.11;;;-3.28;97.67
42951;BME280;28592;51.064;17.192;2022-11-20T07:44:21;99836.38;;;-3.28;97.89
42951;BME280;28592;51.064;17.192;2022-11-20T07:47:06;99846.61;;;-3.03;97.70
42951;BME280;28592;51.064;17.192;2022-11-20T07:49:52;99840.58;;;-3.04;97.93
42951;BME280;28592;51.064;17.192;2022-11-20T07:52:47;99838.53;;;-2.96;97.83
42951;BME280;28592;51.064;17.192;2022-11-20T07:55:52;99837.05;;;-2.81;97.92
42951;BME280;28592;51.064;17.192;2022-11-20T07:58:39;99829.68;;;-2.50;97.60
42951;BME280;28592;51.064;17.192;2022-11-20T08:01:25;99834.41;;;-2.40;97.27
42951;BME280;28592;51.064;17.192;2022-11-20T08:04:10;99834.94;;;-2.32;97.15
42951;BME280;28592;51.064;17.192;2022-11-20T08:06:56;99837.81;;;-2.19;97.30
42951;BME280;28592;51.064;17.192;2022-11-20T08:09:43;99821.36;;;-2.18;97.23
42951;BME280;28592;51.064;17.192;2022-11-20T08:12:29;99822.35;;;-2.02;97.09
42951;BME280;28592;51.064;17.192;2022-11-20T08:15:26;99832.90;;;-1.87;97.28
42951;BME280;28592;51.064;17.192;2022-11-20T08:18:12;99829.75;;;-1.74;96.79
42951;BME280;28592;51.064;17.192;2022-11-20T08:21:01;99823.70;;;-1.75;97.05
42951;BME280;28592;51.064;17.192;2022-11-20T08:23:46;99820.89;;;-1.52;97.10
42951;BME280;28592;51.064;17.192;2022-11-20T08:26:32;99814.75;;;-1.32;96.44
42951;BME280;28592;51.064;17.192;2022-11-20T08:29:18;99811.34;;;-1.33;96.36
42951;BME280;28592;51.064;17.192;2022-11-20T08:32:03;99817.17;;;-1.11;96.35
42951;BME280;28592;51.064;17.192;2022-11-20T08:34:49;99812.38;;;-1.01;95.80
42951;BME280;28592;51.064;17.192;2022-11-20T08:37:35;99810.70;;;-1.02;95.56
42951;BME280;28592;51.064;17.192;2022-11-20T08:40:26;99812.65;;;-0.72;94.58
42951;BME280;28592;51.064;17.192;2022-11-20T08:43:11;99805.59;;;-0.70;94.52
42951;BME280;28592;51.064;17.192;2022-11-20T08:45:57;99808.19;;;-0.70;94.24
42951;BME280;28592;51.064;17.192;2022-11-20T08:48:43;99805.89;;;-0.59;92.04
42951;BME280;28592;51.064;17.192;2022-11-20T08:51:29;99814.31;;;-0.71;91.67
42951;BME280;28592;51.064;17.192;2022-11-20T08:54:14;99812.41;;;-0.67;91.92
42951;BME280;28592;51.064;17.192;2022-11-20T08:57:06;99812.92;;;-0.61;91.29
42951;BME280;28592;51.064;17.192;2022-11-20T08:59:54;99802.91;;;-0.51;90.60
42951;BME280;28592;51.064;17.192;2022-11-20T09:02:46;99803.76;;;-0.51;90.93
42951;BME280;28592;51.064;17.192;2022-11-20T09:05:31;99793.75;;;-0.26;90.64
42951;BME280;28592;51.064;17.192;2022-11-20T09:08:16;99794.20;;;-0.18;92.14
42951;BME280;28592;51.064;17.192;2022-11-20T09:11:03;99795.95;;;-0.18;91.78
42951;BME280;28592;51.064;17.192;2022-11-20T09:13:50;99790.11;;;-0.06;92.13
42951;BME280;28592;51.064;17.192;2022-11-20T09:16:35;99798.39;;;0.18;90.15
42951;BME280;28592;51.064;17.192;2022-11-20T09:19:24;99798.39;;;0.18;89.86
42951;BME280;28592;51.064;17.192;2022-11-20T09:22:09;99789.16;;;0.43;90.25
42951;BME280;28592;51.064;17.192;2022-11-20T09:24:55;99797.39;;;0.36;89.84
42951;BME280;28592;51.064;17.192;2022-11-20T09:27:40;99789.31;;;0.25;89.52
42951;BME280;28592;51.064;17.192;2022-11-20T09:30:30;99786.70;;;0.25;89.38
42951;BME280;28592;51.064;17.192;2022-11-20T09:33:16;99782.70;;;0.35;89.06
42951;BME280;28592;51.064;17.192;2022-11-20T09:36:01;99767.80;;;0.37;87.36
42951;BME280;28592;51.064;17.192;2022-11-20T09:38:47;99772.02;;;0.39;88.17
42951;BME280;28592;51.064;17.192;2022-11-20T09:47:43;99774.20;;;0.62;89.23
42951;BME280;28592;51.064;17.192;2022-11-20T09:50:40;99769.88;;;0.77;89.34
42951;BME280;28592;51.064;17.192;2022-11-20T09:56:26;99756.67;;;0.80;89.12
42951;BME280;28592;51.064;17.192;2022-11-20T10:02:17;99741.41;;;1.17;89.57
42951;BME280;28592;51.064;17.192;2022-11-20T10:08:14;99744.83;;;1.04;87.77
42951;BME280;28592;51.064;17.192;2022-11-20T10:20:02;99734.57;;;1.01;88.38
42951;BME280;28592;51.064;17.192;2022-11-20T10:22:59;99732.91;;;1.00;88.67
42951;BME280;28592;51.064;17.192;2022-11-20T10:25:56;99728.81;;;1.10;88.19
42951;BME280;28592;51.064;17.192;2022-11-20T10:31:45;99719.00;;;1.29;87.40
42951;BME280;28592;51.064;17.192;2022-11-20T10:37:31;99718.08;;;1.44;87.58
42951;BME280;28592;51.064;17.192;2022-11-20T10:43:24;99699.81;;;1.44;86.37
42951;BME280;28592;51.064;17.192;2022-11-20T10:46:20;99692.72;;;1.32;86.32
42951;BME280;28592;51.064;17.192;2022-11-20T10:49:15;99698.97;;;1.29;87.38
42951;BME280;28592;51.064;17.192;2022-11-20T11:03:51;99703.19;;;1.60;86.04
42951;BME280;28592;51.064;17.192;2022-11-20T11:06:42;99701.48;;;1.59;86.08
42951;BME280;28592;51.064;17.192;2022-11-20T11:09:39;99701.11;;;1.79;86.65
42951;BME280;28592;51.064;17.192;2022-11-20T11:12:28;99687.11;;;1.80;85.94
42951;BME280;28592;51.064;17.192;2022-11-20T11:18:11;99683.55;;;2.36;84.27
42951;BME280;28592;51.064;17.192;2022-11-20T11:21:04;99680.39;;;2.31;83.13
42951;BME280;28592;51.064;17.192;2022-11-20T11:23:59;99680.59;;;2.28;84.07
42951;BME280;28592;51.064;17.192;2022-11-20T11:29:40;99673.36;;;2.45;83.00
42951;BME280;28592;51.064;17.192;2022-11-20T11:32:25;99669.05;;;2.44;79.81
42951;BME280;28592;51.064;17.192;2022-11-20T11:38:19;99662.58;;;2.89;79.94
42951;BME280;28592;51.064;17.192;2022-11-20T11:41:15;99655.69;;;2.88;79.92
42951;BME280;28592;51.064;17.192;2022-11-20T11:50:16;99640.42;;;3.19;78.76
42951;BME280;28592;51.064;17.192;2022-11-20T11:53:17;99637.28;;;3.39;77.13
42951;BME280;28592;51.064;17.192;2022-11-20T11:56:09;99627.62;;;3.52;75.61
42951;BME280;28592;51.064;17.192;2022-11-20T11:58:57;99625.95;;;3.51;75.61
42951;BME280;28592;51.064;17.192;2022-11-20T12:01:52;99620.22;;;3.83;74.59
42951;BME280;28592;51.064;17.192;2022-11-20T12:07:41;99612.52;;;3.69;73.87
42951;BME280;28592;51.064;17.192;2022-11-20T12:13:39;99606.02;;;3.61;73.80
42951;BME280;28592;51.064;17.192;2022-11-20T12:16:26;99616.30;;;3.52;73.55
42951;BME280;28592;51.064;17.192;2022-11-20T12:19:15;99611.59;;;3.44;74.17
42951;BME280;28592;51.064;17.192;2022-11-20T12:25:10;99602.72;;;3.34;74.81
42951;BME280;28592;51.064;17.192;2022-11-20T12:39:55;99616.78;;;3.82;73.84
42951;BME280;28592;51.064;17.192;2022-11-20T12:42:56;99611.65;;;3.81;73.90
42951;BME280;28592;51.064;17.192;2022-11-20T12:46:01;99618.52;;;3.94;71.63
42951;BME280;28592;51.064;17.192;2022-11-20T12:54:57;99601.22;;;3.92;71.85
42951;BME280;28592;51.064;17.192;2022-11-20T13:03:44;99599.98;;;3.85;69.63
42951;BME280;28592;51.064;17.192;2022-11-20T13:06:35;99598.33;;;3.84;69.68
42951;BME280;28592;51.064;17.192;2022-11-20T13:09:25;99592.61;;;4.02;69.97
42951;BME280;28592;51.064;17.192;2022-11-20T13:12:23;99587.37;;;4.02;69.84
42951;BME280;28592;51.064;17.192;2022-11-20T13:18:11;99571.05;;;3.63;70.36
42951;BME280;28592;51.064;17.192;2022-11-20T13:20:56;99568.03;;;3.43;72.13
42951;BME280;28592;51.064;17.192;2022-11-20T13:23:42;99566.24;;;3.56;73.10
42951;BME280;28592;51.064;17.192;2022-11-20T13:26:33;99560.34;;;3.66;73.04
42951;BME280;28592;51.064;17.192;2022-11-20T13:29:28;99552.09;;;3.83;72.53
42951;BME280;28592;51.064;17.192;2022-11-20T13:32:17;99539.39;;;3.66;73.13
42951;BME280;28592;51.064;17.192;2022-11-20T13:35:04;99542.16;;;3.75;73.04
42951;BME280;28592;51.064;17.192;2022-11-20T13:40:57;99541.52;;;4.08;72.56
42951;BME280;28592;51.064;17.192;2022-11-20T13:43:44;99537.73;;;3.88;74.27
42951;BME280;28592;51.064;17.192;2022-11-20T13:49:40;99531.98;;;4.07;74.89
42951;BME280;28592;51.064;17.192;2022-11-20T13:58:36;99524.71;;;3.63;75.53
42951;BME280;28592;51.064;17.192;2022-11-20T14:01:23;99530.36;;;3.70;76.10
42951;BME280;28592;51.064;17.192;2022-11-20T14:04:15;99524.27;;;3.69;76.16
42951;BME280;28592;51.064;17.192;2022-11-20T14:07:05;99521.31;;;3.74;75.93
42951;BME280;28592;51.064;17.192;2022-11-20T14:09:55;99522.23;;;3.85;75.71
42951;BME280;28592;51.064;17.192;2022-11-20T14:12:42;99514.48;;;3.84;75.94
42951;BME280;28592;51.064;17.192;2022-11-20T14:15:32;99517.24;;;3.93;75.64
42951;BME280;28592;51.064;17.192;2022-11-20T14:18:20;99520.47;;;3.49;76.32
42951;BME280;28592;51.064;17.192;2022-11-20T14:21:10;99515.19;;;3.62;76.77
42951;BME280;28592;51.064;17.192;2022-11-20T14:24:05;99515.12;;;3.51;76.88
42951;BME280;28592;51.064;17.192;2022-11-20T14:26:52;99505.59;;;3.50;77.25
42951;BME280;28592;51.064;17.192;2022-11-20T14:29:41;99506.15;;;3.42;77.34
42951;BME280;28592;51.064;17.192;2022-11-20T14:32:29;99505.00;;;3.34;77.82
42951;BME280;28592;51.064;17.192;2022-11-20T14:35:26;99494.98;;;3.15;78.39
42951;BME280;28592;51.064;17.192;2022-11-20T14:38:14;99496.80;;;3.02;78.91
42951;BME280;28592;51.064;17.192;2022-11-20T14:41:16;99505.61;;;2.89;79.33
42951;BME280;28592;51.064;17.192;2022-11-20T14:44:04;99502.15;;;2.88;78.98
42951;BME280;28592;51.064;17.192;2022-11-20T14:46:51;99501.00;;;2.55;78.94
42951;BME280;28592;51.064;17.192;2022-11-20T14:49:37;99503.63;;;2.42;78.89
42951;BME280;28592;51.064;17.192;2022-11-20T14:52:25;99498.05;;;2.22;80.11
42951;BME280;28592;51.064;17.192;2022-11-20T14:55:13;99492.92;;;2.20;79.98
42951;BME280;28592;51.064;17.192;2022-11-20T15:00:59;99498.98;;;1.81;81.18
42951;BME280;28592;51.064;17.192;2022-11-20T15:03:45;99486.88;;;1.80;81.49
42951;BME280;28592;51.064;17.192;2022-11-20T15:06:31;99504.25;;;1.41;82.41
42951;BME280;28592;51.064;17.192;2022-11-20T15:09:16;99498.34;;;1.25;82.70
42951;BME280;28592;51.064;17.192;2022-11-20T15:12:05;99498.17;;;1.00;83.51
42951;BME280;28592;51.064;17.192;2022-11-20T15:14:54;99501.72;;;0.99;83.52
42951;BME280;28592;51.064;17.192;2022-11-20T15:17:40;99498.45;;;0.81;84.23
42951;BME280;28592;51.064;17.192;2022-11-20T15:20:30;99505.64;;;0.64;86.37
42951;BME280;28592;51.064;17.192;2022-11-20T15:23:17;99499.94;;;0.57;86.98
42951;BME280;28592;51.064;17.192;2022-11-20T15:26:10;99498.28;;;0.56;86.72
42951;BME280;28592;51.064;17.192;2022-11-20T15:28:56;99494.62;;;0.45;87.66
42951;BME280;28592;51.064;17.192;2022-11-20T15:31:41;99501.01;;;0.25;88.58
42951;BME280;28592;51.064;17.192;2022-11-20T15:34:32;99496.65;;;0.26;88.60
42951;BME280;28592;51.064;17.192;2022-11-20T15:37:21;99504.16;;;0.16;89.52
42951;BME280;28592;51.064;17.192;2022-11-20T15:40:10;99504.02;;;0.03;89.61
42951;BME280;28592;51.064;17.192;2022-11-20T15:42:56;99502.35;;;0.03;89.60
42951;BME280;28592;51.064;17.192;2022-11-20T15:45:54;99502.70;;;-0.04;89.84
42951;BME280;28592;51.064;17.192;2022-11-20T15:48:51;99492.83;;;-0.13;90.09
42951;BME280;28592;51.064;17.192;2022-11-20T15:51:43;99496.24;;;-0.12;90.11
42951;BME280;28592;51.064;17.192;2022-11-20T15:54:28;99493.91;;;-0.17;89.82
42951;BME280;28592;51.064;17.192;2022-11-20T15:57:14;99495.28;;;-0.25;89.58
42951;BME280;28592;51.064;17.192;2022-11-20T16:00:00;99492.53;;;-0.53;89.98
42951;BME280;28592;51.064;17.192;2022-11-20T16:02:45;99498.67;;;-0.54;90.28
42951;BME280;28592;51.064;17.192;2022-11-20T16:05:31;99493.13;;;-0.64;91.35
42951;BME280;28592;51.064;17.192;2022-11-20T16:08:16;99486.69;;;-0.72;91.78
42951;BME280;28592;51.064;17.192;2022-11-20T16:11:02;99494.39;;;-0.86;91.73
42951;BME280;28592;51.064;17.192;2022-11-20T16:13:52;99493.14;;;-0.95;92.34
42951;BME280;28592;51.064;17.192;2022-11-20T16:16:49;99486.16;;;-0.94;92.05
42951;BME280;28592;51.064;17.192;2022-11-20T16:19:36;99495.75;;;-0.95;93.18
42951;BME280;28592;51.064;17.192;2022-11-20T16:22:24;99487.02;;;-0.94;93.68
42951;BME280;28592;51.064;17.192;2022-11-20T16:25:09;99488.20;;;-0.99;93.37
42951;BME280;28592;51.064;17.192;2022-11-20T16:27:55;99484.15;;;-1.05;93.47
42951;BME280;28592;51.064;17.192;2022-11-20T16:30:40;99492.44;;;-1.14;93.98
42951;BME280;28592;51.064;17.192;2022-11-20T16:33:26;99483.47;;;-1.24;93.83
42951;BME280;28592;51.064;17.192;2022-11-20T16:36:13;99490.66;;;-1.29;93.67